Time;durP1;ratioP1;P1;durP2;ratioP2;P2;SDS_P1;SDS_P2;PMS_P1;PMS_P2;Temp;Humidity;BMP_temperature;BMP_pressure;BME280_temperature;BME280_humidity;BME280_pressure;Samples;Min_cycle;Max_cycle;Signal;HPM_P1;HPM_P2
2024/04/13 00:00:05;;;;;;;6.97;3.58;;;10.30;99.90;;;;;;5469662;26;20003;-67
2024/04/13 00:02:32;;;;;;;6.28;3.42;;;10.30;99.90;;;;;;5472054;26;20033;-67
2024/04/13 00:04:57;;;;;;;7.50;3.42;;;10.20;99.90;;;;;;5455249;26;20462;-67
2024/04/13 00:07:24;;;;;;;6.95;3.75;;;10.20;99.90;;;;;;5472345;26;20002;-67
2024/04/13 00:09:50;;;;;;;6.43;3.50;;;10.10;99.90;;;;;;5483483;26;20002;-67
2024/04/13 00:12:16;;;;;;;5.13;3.33;;;10.20;99.90;;;;;;5426675;26;20372;-68
2024/04/13 00:14:42;;;;;;;5.97;3.55;;;10.10;99.90;;;;;;5457500;26;20088;-67
2024/04/13 00:17:07;;;;;;;8.63;3.83;;;10.10;99.90;;;;;;5480861;26;20388;-68
2024/04/13 00:19:35;;;;;;;9.55;3.88;;;10.10;99.90;;;;;;5483972;26;20217;-67
2024/04/13 00:22:01;;;;;;;8.73;3.88;;;10.00;99.90;;;;;;5474795;26;20038;-67
2024/04/13 00:24:27;;;;;;;6.97;3.80;;;10.00;99.90;;;;;;5473248;26;20013;-68
2024/04/13 00:26:53;;;;;;;8.10;3.90;;;10.00;99.90;;;;;;5481372;26;20420;-67
2024/04/13 00:29:18;;;;;;;6.82;3.75;;;10.00;99.90;;;;;;5487194;26;19998;-68
2024/04/13 00:31:44;;;;;;;5.90;3.47;;;10.00;99.90;;;;;;5468245;26;19994;-67
2024/04/13 00:34:10;;;;;;;8.55;4.47;;;9.90;99.90;;;;;;5469896;26;20013;-67
2024/04/13 00:36:35;;;;;;;7.68;3.92;;;9.90;99.90;;;;;;5481510;26;20002;-67
2024/04/13 00:39:04;;;;;;;7.70;4.07;;;9.80;99.90;;;;;;5468789;26;20542;-67
2024/04/13 00:41:30;;;;;;;6.47;3.65;;;9.80;99.90;;;;;;5485700;26;20704;-68
2024/04/13 00:43:57;;;;;;;7.97;4.57;;;9.80;99.90;;;;;;5459803;26;19995;-68
2024/04/13 00:46:25;;;;;;;8.05;3.90;;;9.80;99.90;;;;;;5460514;26;20013;-68
2024/04/13 00:48:53;;;;;;;7.15;3.58;;;9.80;99.90;;;;;;5474977;26;20007;-67
2024/04/13 00:51:23;;;;;;;7.63;3.55;;;9.70;99.90;;;;;;5478460;26;19995;-67
2024/04/13 00:53:49;;;;;;;8.03;4.13;;;9.70;99.90;;;;;;5484621;26;20014;-67
2024/04/13 00:56:15;;;;;;;5.90;3.22;;;9.60;99.90;;;;;;5479684;26;20324;-68
2024/04/13 00:58:43;;;;;;;7.03;3.67;;;9.60;99.90;;;;;;5469896;26;20454;-67
2024/04/13 01:01:10;;;;;;;5.97;3.25;;;9.50;99.90;;;;;;5484079;26;20531;-67
2024/04/13 01:03:38;;;;;;;5.78;3.47;;;9.50;99.90;;;;;;5471154;26;19998;-67
2024/04/13 01:06:06;;;;;;;6.65;3.63;;;9.50;99.90;;;;;;5481614;26;20087;-67
2024/04/13 01:08:34;;;;;;;4.95;3.30;;;9.50;99.90;;;;;;5473377;26;20009;-67
2024/04/13 01:11:00;;;;;;;7.15;3.83;;;9.50;99.90;;;;;;5487178;26;20013;-68
2024/04/13 01:13:26;;;;;;;5.85;3.78;;;9.50;99.90;;;;;;5476228;26;20002;-67
2024/04/13 01:15:52;;;;;;;6.78;3.70;;;9.50;99.90;;;;;;5471536;26;19999;-68
2024/04/13 01:18:18;;;;;;;6.32;3.97;;;9.40;99.90;;;;;;5481047;26;20431;-67
2024/04/13 01:20:43;;;;;;;6.20;3.25;;;9.40;99.90;;;;;;5482218;26;19998;-67
2024/04/13 01:23:11;;;;;;;8.65;3.42;;;9.30;99.90;;;;;;5470945;26;20008;-67
2024/04/13 01:25:41;;;;;;;6.50;3.58;;;9.30;99.90;;;;;;5482972;26;20361;-68
2024/04/13 01:28:07;;;;;;;7.93;4.10;;;9.30;99.90;;;;;;5477039;26;19999;-67
2024/04/13 01:30:34;;;;;;;7.15;3.92;;;9.30;99.90;;;;;;5458405;26;20010;-68
2024/04/13 01:33:01;;;;;;;9.77;3.97;;;9.30;99.90;;;;;;5474413;26;20002;-68
2024/04/13 01:35:26;;;;;;;6.55;4.15;;;9.30;99.90;;;;;;5481006;26;20013;-68
2024/04/13 01:37:52;;;;;;;8.25;4.47;;;9.30;99.90;;;;;;5460289;26;20002;-67
2024/04/13 01:40:17;;;;;;;11.57;3.97;;;9.30;99.90;;;;;;5461941;26;20014;-68
2024/04/13 01:42:46;;;;;;;7.75;3.70;;;9.30;99.90;;;;;;5471872;26;20009;-68
2024/04/13 01:45:12;;;;;;;7.68;3.85;;;9.30;99.90;;;;;;5460480;26;20459;-67
2024/04/13 01:47:38;;;;;;;8.73;4.03;;;9.30;99.90;;;;;;5470419;26;20017;-67
2024/04/13 01:50:04;;;;;;;7.43;4.20;;;9.30;99.90;;;;;;5467856;26;20018;-67
2024/04/13 01:52:30;;;;;;;8.75;3.95;;;9.20;99.90;;;;;;5480089;26;20009;-67
2024/04/13 01:54:56;;;;;;;5.70;3.75;;;9.20;99.90;;;;;;5486957;26;20339;-67
2024/04/13 01:57:22;;;;;;;4.65;3.40;;;9.20;99.90;;;;;;5477610;26;20393;-67
2024/04/13 01:59:47;;;;;;;6.70;3.53;;;9.20;99.90;;;;;;5476424;26;20088;-67
2024/04/13 02:02:14;;;;;;;6.70;4.20;;;9.20;99.90;;;;;;5476460;26;19998;-67
2024/04/13 02:04:40;;;;;;;6.93;3.72;;;9.10;99.90;;;;;;5473344;26;20006;-67
2024/04/13 02:07:06;;;;;;;7.65;3.40;;;9.10;99.90;;;;;;5472015;26;20009;-67
2024/04/13 02:09:33;;;;;;;5.82;3.50;;;9.10;99.90;;;;;;5480272;26;20002;-67
2024/04/13 02:12:02;;;;;;;8.65;3.60;;;9.00;99.90;;;;;;5485378;26;19998;-67
2024/04/13 02:14:27;;;;;;;7.28;3.90;;;9.00;99.90;;;;;;5462805;26;20332;-68
2024/04/13 02:16:53;;;;;;;7.80;4.32;;;9.00;99.90;;;;;;5480173;26;20002;-67
2024/04/13 02:19:19;;;;;;;8.50;4.28;;;9.00;99.90;;;;;;5483850;26;20079;-68
2024/04/13 02:21:45;;;;;;;7.63;4.05;;;9.00;99.90;;;;;;5486207;26;19994;-67
2024/04/13 02:24:10;;;;;;;10.07;4.13;;;9.00;99.90;;;;;;5469708;26;19995;-67
2024/04/13 02:26:36;;;;;;;7.95;4.30;;;9.00;99.90;;;;;;5482142;26;20071;-67
2024/04/13 02:29:01;;;;;;;8.48;4.03;;;9.10;99.90;;;;;;5466900;26;20440;-67
2024/04/13 02:31:27;;;;;;;8.20;4.07;;;9.10;99.90;;;;;;5466191;26;20070;-67
2024/04/13 02:33:53;;;;;;;8.70;4.28;;;9.10;99.90;;;;;;5474467;26;20021;-67
2024/04/13 02:36:18;;;;;;;7.18;3.97;;;9.20;99.90;;;;;;5473849;26;19999;-67
2024/04/13 02:38:46;;;;;;;8.30;3.75;;;9.20;99.90;;;;;;5456265;26;20003;-67
2024/04/13 02:41:12;;;;;;;6.75;3.47;;;9.10;99.90;;;;;;5471971;26;19994;-67
2024/04/13 02:43:38;;;;;;;8.85;4.35;;;9.10;99.90;;;;;;5461225;26;20071;-67
2024/04/13 02:46:08;;;;;;;9.27;3.78;;;9.10;99.90;;;;;;5456888;26;20471;-67
2024/04/13 02:48:38;;;;;;;10.73;4.63;;;9.00;99.90;;;;;;5472563;26;19998;-67
2024/04/13 02:51:04;;;;;;;6.30;3.97;;;9.10;99.90;;;;;;5477100;26;20002;-67
2024/04/13 02:53:29;;;;;;;7.47;4.15;;;9.10;99.90;;;;;;5482290;26;20321;-66
2024/04/13 02:55:55;;;;;;;8.15;4.07;;;9.00;99.90;;;;;;5483248;26;20010;-67
2024/04/13 02:58:20;;;;;;;7.43;4.03;;;9.00;99.90;;;;;;5463334;26;20003;-67
2024/04/13 03:01:00;;;;;;;5.43;3.40;;;9.00;99.90;;;;;;5481494;26;19993;-67
2024/04/13 03:03:27;;;;;;;5.70;3.50;;;8.90;99.90;;;;;;5476326;26;19998;-67
2024/04/13 03:06:07;;;;;;;7.63;3.80;;;8.80;99.90;;;;;;5466962;26;19998;-66
2024/04/13 03:08:33;;;;;;;8.32;4.35;;;8.80;99.90;;;;;;5474129;26;20009;-67
2024/04/13 03:11:00;;;;;;;6.28;3.20;;;8.70;99.90;;;;;;5486239;26;19998;-67
2024/04/13 03:13:27;;;;;;;5.75;3.70;;;8.70;99.90;;;;;;5474211;26;20018;-67
2024/04/13 03:16:03;;;;;;;5.15;3.60;;;8.70;99.90;;;;;;5467038;26;20470;-67
2024/04/13 03:18:30;;;;;;;7.07;3.65;;;8.60;99.90;;;;;;5483459;26;20478;-67
2024/04/13 03:20:57;;;;;;;6.95;3.70;;;8.70;99.90;;;;;;5480233;26;20002;-67
2024/04/13 03:23:23;;;;;;;6.70;3.90;;;8.70;99.90;;;;;;5469887;26;20041;-67
2024/04/13 03:25:49;;;;;;;6.07;3.40;;;8.70;99.90;;;;;;5482720;26;20034;-67
2024/04/13 03:28:15;;;;;;;8.77;4.53;;;8.70;99.90;;;;;;5474770;26;19994;-67
2024/04/13 03:30:40;;;;;;;6.32;3.78;;;8.70;99.90;;;;;;5439233;26;20002;-67
2024/04/13 03:33:06;;;;;;;9.07;3.90;;;8.70;99.90;;;;;;5476695;26;19998;-67
2024/04/13 03:35:38;;;;;;;6.55;3.33;;;8.60;99.90;;;;;;5479889;26;20016;-67
2024/04/13 03:38:07;;;;;;;8.02;3.72;;;8.60;99.90;;;;;;5476804;26;20018;-67
2024/04/13 03:40:35;;;;;;;11.00;4.10;;;8.60;99.90;;;;;;5447831;26;20332;-67
2024/04/13 03:43:01;;;;;;;8.45;4.15;;;8.60;99.90;;;;;;5472440;26;20014;-67
2024/04/13 03:45:27;;;;;;;7.65;3.95;;;8.50;99.90;;;;;;5457869;26;20517;-67
2024/04/13 03:47:53;;;;;;;8.93;4.40;;;8.50;99.90;;;;;;5474630;26;20002;-67
2024/04/13 03:50:18;;;;;;;7.22;4.35;;;8.50;99.90;;;;;;5443607;26;20033;-67
2024/04/13 03:52:44;;;;;;;8.43;3.45;;;8.40;99.90;;;;;;5476662;26;19998;-67
2024/04/13 03:55:10;;;;;;;5.78;3.58;;;8.40;99.90;;;;;;5478714;26;20002;-66
2024/04/13 03:57:36;;;;;;;4.50;3.30;;;8.40;99.90;;;;;;5478850;26;20007;-67
2024/04/13 04:00:05;;;;;;;6.65;4.00;;;8.30;99.90;;;;;;5475436;26;19994;-67
2024/04/13 04:02:31;;;;;;;4.05;3.47;;;8.30;99.90;;;;;;5469548;26;19998;-67
2024/04/13 04:04:57;;;;;;;6.65;4.00;;;8.30;99.90;;;;;;5473337;26;20009;-68
2024/04/13 04:07:22;;;;;;;8.93;4.28;;;8.20;99.90;;;;;;5477202;26;19994;-69
2024/04/13 04:09:48;;;;;;;7.35;4.70;;;8.20;99.90;;;;;;5477610;26;20006;-67
2024/04/13 04:12:14;;;;;;;9.20;4.57;;;8.20;99.90;;;;;;5476864;26;20005;-67
2024/04/13 04:14:40;;;;;;;8.18;5.03;;;8.20;99.90;;;;;;5464156;26;20196;-67
2024/04/13 04:17:05;;;;;;;8.82;5.05;;;8.30;99.90;;;;;;5481427;26;20005;-67
2024/04/13 04:19:32;;;;;;;9.55;4.68;;;8.30;99.90;;;;;;5477026;26;20002;-67
2024/04/13 04:21:57;;;;;;;7.47;4.20;;;8.30;99.90;;;;;;5482363;26;20002;-67
2024/04/13 04:24:23;;;;;;;7.28;4.30;;;8.30;99.90;;;;;;5478870;26;20010;-68
2024/04/13 04:26:49;;;;;;;7.22;4.50;;;8.30;99.90;;;;;;5469366;26;20014;-67
2024/04/13 04:29:15;;;;;;;8.25;4.68;;;8.20;99.90;;;;;;5480276;26;19998;-69
2024/04/13 04:31:41;;;;;;;9.95;4.55;;;8.30;99.90;;;;;;5467617;26;20002;-68
2024/04/13 04:34:08;;;;;;;8.50;5.07;;;8.20;99.90;;;;;;5475364;26;20034;-68
2024/04/13 04:36:34;;;;;;;10.57;5.18;;;8.30;99.90;;;;;;5462376;26;20231;-68
2024/04/13 04:39:00;;;;;;;12.07;5.35;;;8.30;99.90;;;;;;5479297;26;19998;-68
2024/04/13 04:41:28;;;;;;;8.70;4.38;;;8.30;99.90;;;;;;5471974;26;20005;-68
2024/04/13 04:43:54;;;;;;;6.88;4.68;;;8.30;99.90;;;;;;5464571;26;20074;-68
2024/04/13 04:46:21;;;;;;;11.23;5.10;;;8.30;99.90;;;;;;5452727;26;20003;-68
2024/04/13 04:48:50;;;;;;;10.48;5.07;;;8.30;99.90;;;;;;5474074;26;20044;-68
2024/04/13 04:51:17;;;;;;;7.93;4.95;;;8.40;99.90;;;;;;5452164;26;20026;-68
2024/04/13 04:53:43;;;;;;;6.47;4.80;;;8.40;99.90;;;;;;5474553;26;19994;-68
2024/04/13 04:56:09;;;;;;;9.50;4.78;;;8.50;99.90;;;;;;5477506;26;20010;-68
2024/04/13 04:58:35;;;;;;;7.95;4.82;;;8.60;99.90;;;;;;5461846;26;20001;-67
2024/04/13 05:01:02;;;;;;;11.77;5.43;;;8.60;99.90;;;;;;5459001;26;20027;-67
2024/04/13 05:03:28;;;;;;;10.80;5.45;;;8.60;99.90;;;;;;5473733;26;19998;-67
2024/04/13 05:05:54;;;;;;;6.65;5.03;;;8.70;99.90;;;;;;5471077;26;20445;-67
2024/04/13 05:08:20;;;;;;;10.20;5.38;;;8.70;99.90;;;;;;5477267;26;20010;-68
2024/04/13 05:10:46;;;;;;;6.68;4.78;;;8.70;99.90;;;;;;5466458;26;20068;-67
2024/04/13 05:13:13;;;;;;;9.15;4.90;;;8.80;99.90;;;;;;5475242;26;19999;-68
2024/04/13 05:15:40;;;;;;;10.32;5.32;;;8.80;99.90;;;;;;5459288;26;20011;-68
2024/04/13 05:18:06;;;;;;;9.32;4.80;;;8.80;99.90;;;;;;5452169;26;20013;-67
2024/04/13 05:20:31;;;;;;;12.15;5.40;;;8.80;99.90;;;;;;5454237;26;20409;-67
2024/04/13 05:22:58;;;;;;;9.25;4.95;;;8.80;99.90;;;;;;5460243;26;20517;-67
2024/04/13 05:25:24;;;;;;;10.10;5.40;;;8.90;99.90;;;;;;5476739;26;20002;-68
2024/04/13 05:27:50;;;;;;;8.00;4.68;;;8.90;99.90;;;;;;5483093;26;20069;-68
2024/04/13 05:30:16;;;;;;;8.13;5.32;;;8.90;99.90;;;;;;5472455;26;20013;-68
2024/04/13 05:32:41;;;;;;;8.43;4.93;;;9.00;99.90;;;;;;5473356;26;20046;-68
2024/04/13 05:35:07;;;;;;;8.98;5.63;;;8.90;99.90;;;;;;5487343;26;20006;-68
2024/04/13 05:37:33;;;;;;;12.18;6.00;;;9.00;99.90;;;;;;5482441;26;20335;-68
2024/04/13 05:39:59;;;;;;;8.95;5.22;;;9.00;99.90;;;;;;5440634;26;20011;-69
2024/04/13 05:42:25;;;;;;;9.55;5.72;;;9.10;99.90;;;;;;5483029;26;20008;-68
2024/04/13 05:44:50;;;;;;;7.35;5.50;;;9.10;99.90;;;;;;5452587;26;20035;-69
2024/04/13 05:47:16;;;;;;;7.47;5.28;;;9.20;99.90;;;;;;5464392;26;20450;-69
2024/04/13 05:49:42;;;;;;;9.25;5.88;;;9.20;99.90;;;;;;5479018;26;20454;-68
2024/04/13 05:52:08;;;;;;;8.75;5.40;;;9.30;99.90;;;;;;5476984;26;19998;-68
2024/04/13 05:54:34;;;;;;;12.27;5.82;;;9.30;99.90;;;;;;5473892;26;20734;-68
2024/04/13 05:56:59;;;;;;;9.00;5.97;;;9.40;99.90;;;;;;5465304;26;20025;-68
2024/04/13 05:59:25;;;;;;;9.27;5.88;;;9.50;99.90;;;;;;5476184;26;19995;-67
2024/04/13 06:01:50;;;;;;;8.07;5.28;;;9.60;99.90;;;;;;5484637;26;20017;-67
2024/04/13 06:04:16;;;;;;;10.38;5.97;;;9.70;99.90;;;;;;5480190;26;20074;-68
2024/04/13 06:06:41;;;;;;;8.68;6.07;;;9.90;99.90;;;;;;5472957;26;19998;-68
2024/04/13 06:09:07;;;;;;;12.25;5.82;;;10.10;99.90;;;;;;5425325;26;19995;-68
2024/04/13 06:11:33;;;;;;;13.68;6.43;;;10.20;99.90;;;;;;5479032;26;19998;-68
2024/04/13 06:13:59;;;;;;;14.05;6.72;;;10.40;99.90;;;;;;5466440;26;20670;-69
2024/04/13 06:16:24;;;;;;;11.35;6.05;;;10.50;99.90;;;;;;5473314;26;20013;-68
2024/04/13 06:18:52;;;;;;;8.57;5.63;;;10.70;99.90;;;;;;5468500;26;19994;-69
2024/04/13 06:21:17;;;;;;;9.80;6.05;;;10.80;99.90;;;;;;5466659;26;20396;-68
2024/04/13 06:23:43;;;;;;;10.88;5.70;;;10.90;99.90;;;;;;5477902;26;20010;-69
2024/04/13 06:26:09;;;;;;;8.23;5.60;;;11.00;99.90;;;;;;5479873;26;20074;-69
2024/04/13 06:28:35;;;;;;;10.48;6.03;;;11.20;99.90;;;;;;5477327;26;20009;-69
2024/04/13 06:31:01;;;;;;;11.32;6.07;;;11.30;99.90;;;;;;5483301;26;20002;-69
2024/04/13 06:33:27;;;;;;;11.57;5.78;;;11.50;99.90;;;;;;5472375;26;20332;-70
2024/04/13 06:35:53;;;;;;;9.85;5.97;;;11.60;99.90;;;;;;5478946;26;20002;-70
2024/04/13 06:38:23;;;;;;;12.43;6.35;;;11.80;99.90;;;;;;5475318;26;20014;-70
2024/04/13 06:40:50;;;;;;;11.93;6.65;;;12.00;99.90;;;;;;5472142;26;19994;-69
2024/04/13 06:43:16;;;;;;;11.43;6.60;;;12.20;99.90;;;;;;5467056;26;20041;-71
2024/04/13 06:45:41;;;;;;;8.98;5.45;;;12.40;99.90;;;;;;5464927;26;20003;-68
2024/04/13 06:48:07;;;;;;;10.77;6.05;;;12.40;99.90;;;;;;5466701;26;19994;-69
2024/04/13 06:50:33;;;;;;;11.32;6.05;;;12.50;99.90;;;;;;5481601;26;19994;-69
2024/04/13 06:52:59;;;;;;;10.50;5.80;;;12.50;99.90;;;;;;5482150;26;20024;-69
2024/04/13 06:55:24;;;;;;;10.20;6.40;;;12.60;99.90;;;;;;5482312;26;19998;-69
2024/04/13 06:57:50;;;;;;;10.13;6.30;;;12.70;99.90;;;;;;5480554;26;20009;-68
2024/04/13 07:00:16;;;;;;;12.95;6.65;;;12.80;99.90;;;;;;5459761;26;20323;-70
2024/04/13 07:02:43;;;;;;;10.60;5.82;;;13.00;99.90;;;;;;5484649;26;20067;-68
2024/04/13 07:05:09;;;;;;;11.70;6.32;;;13.10;99.90;;;;;;5474955;26;19995;-72
2024/04/13 07:07:35;;;;;;;12.20;5.97;;;13.30;99.90;;;;;;5453439;26;20006;-75
2024/04/13 07:10:00;;;;;;;12.35;6.20;;;13.30;99.90;;;;;;5460040;26;20009;-74
2024/04/13 07:12:26;;;;;;;9.90;6.55;;;13.40;99.90;;;;;;5478642;26;20009;-72
2024/04/13 07:14:53;;;;;;;11.80;6.80;;;13.50;99.90;;;;;;5454648;26;20015;-72
2024/04/13 07:17:19;;;;;;;10.23;6.38;;;13.60;99.90;;;;;;5473989;26;20006;-72
2024/04/13 07:19:44;;;;;;;11.07;5.72;;;13.60;99.90;;;;;;5456523;26;19995;-72
2024/04/13 07:22:10;;;;;;;10.85;6.75;;;13.80;99.90;;;;;;5475251;26;20010;-72
2024/04/13 07:24:36;;;;;;;10.27;6.20;;;13.90;99.90;;;;;;5476348;26;20543;-73
2024/04/13 07:27:02;;;;;;;13.80;6.32;;;14.00;99.90;;;;;;5485189;26;19998;-71
2024/04/13 07:29:28;;;;;;;9.15;6.00;;;14.00;99.90;;;;;;5477424;26;20006;-71
2024/04/13 07:31:53;;;;;;;14.25;5.82;;;14.00;99.90;;;;;;5478074;26;19998;-70
2024/04/13 07:34:19;;;;;;;12.50;5.82;;;14.20;99.90;;;;;;5476126;26;20393;-71
2024/04/13 07:36:46;;;;;;;10.07;5.65;;;14.30;99.90;;;;;;5483149;26;19998;-73
2024/04/13 07:39:12;;;;;;;13.65;6.30;;;14.40;99.90;;;;;;5466898;26;20446;-71
2024/04/13 07:41:38;;;;;;;11.90;6.22;;;14.60;99.90;;;;;;5475627;26;20456;-73
2024/04/13 07:44:04;;;;;;;8.27;5.75;;;14.70;99.90;;;;;;5462911;26;20087;-73
2024/04/13 07:46:29;;;;;;;12.75;6.30;;;14.80;99.90;;;;;;5462144;26;20018;-72
2024/04/13 07:48:55;;;;;;;8.20;5.43;;;14.90;99.90;;;;;;5467154;26;20451;-72
2024/04/13 07:51:21;;;;;;;10.20;5.53;;;15.00;99.90;;;;;;5475180;26;19998;-73
2024/04/13 07:53:46;;;;;;;11.32;5.85;;;15.10;99.90;;;;;;5481176;26;20002;-73
2024/04/13 07:56:12;;;;;;;8.50;5.10;;;15.20;99.90;;;;;;5478382;26;20043;-73
2024/04/13 07:58:37;;;;;;;10.57;4.95;;;15.30;99.90;;;;;;5467166;26;20427;-73
2024/04/13 08:01:03;;;;;;;10.00;5.70;;;15.50;99.90;;;;;;5452903;26;20003;-73
2024/04/13 08:03:29;;;;;;;9.65;5.10;;;15.70;99.90;;;;;;5474712;26;20012;-73
2024/04/13 08:05:55;;;;;;;8.85;5.53;;;15.80;99.90;;;;;;5456545;26;20310;-73
2024/04/13 08:08:21;;;;;;;12.73;5.72;;;16.00;99.90;;;;;;5460295;26;20063;-73
2024/04/13 08:10:47;;;;;;;15.20;5.55;;;16.20;99.90;;;;;;5458813;26;20002;-72
2024/04/13 08:13:12;;;;;;;8.18;5.07;;;16.40;99.90;;;;;;5473434;26;20010;-73
2024/04/13 08:15:39;;;;;;;9.38;6.07;;;16.50;99.90;;;;;;5453197;26;20014;-72
2024/04/13 08:18:05;;;;;;;13.05;5.05;;;16.70;99.90;;;;;;5453758;26;20035;-73
2024/04/13 08:20:31;;;;;;;7.65;5.28;;;16.80;99.90;;;;;;5448491;26;19999;-72
2024/04/13 08:22:56;;;;;;;8.23;4.88;;;17.00;99.90;;;;;;5452830;26;20084;-73
2024/04/13 08:25:23;;;;;;;15.25;5.95;;;17.10;99.90;;;;;;5483695;26;19994;-73
2024/04/13 08:27:49;;;;;;;7.85;5.40;;;17.30;99.90;;;;;;5483618;26;20010;-73
2024/04/13 08:30:15;;;;;;;11.98;5.47;;;17.50;99.90;;;;;;5479897;26;20048;-73
2024/04/13 08:32:44;;;;;;;9.98;5.03;;;17.60;99.90;;;;;;5478959;26;20006;-73
2024/04/13 08:35:09;;;;;;;9.00;4.90;;;17.70;99.90;;;;;;5475247;26;20002;-74
2024/04/13 08:37:35;;;;;;;10.82;5.65;;;17.90;99.90;;;;;;5485679;26;20133;-71
2024/04/13 08:40:00;;;;;;;7.93;4.90;;;18.00;99.90;;;;;;5465883;26;20072;-71
2024/04/13 08:42:38;;;;;;;11.35;5.30;;;18.10;99.90;;;;;;5479661;26;20010;-71
2024/04/13 08:45:08;;;;;;;10.40;4.93;;;18.20;99.90;;;;;;5454690;26;20029;-71
2024/04/13 08:47:35;;;;;;;10.82;4.85;;;18.30;99.90;;;;;;5460379;26;19999;-70
2024/04/13 08:50:03;;;;;;;9.68;4.40;;;18.50;99.90;;;;;;5473269;26;19998;-72
2024/04/13 08:52:32;;;;;;;9.68;4.38;;;18.60;99.90;;;;;;5485058;26;20002;-73
2024/04/13 08:54:58;;;;;;;10.85;5.20;;;18.80;99.90;;;;;;5484502;26;20008;-71
2024/04/13 08:57:25;;;;;;;9.20;4.53;;;18.80;99.90;;;;;;5456332;26;19999;-71
2024/04/13 08:59:52;;;;;;;8.75;4.40;;;18.90;99.90;;;;;;5479332;26;20436;-71
2024/04/13 09:02:25;;;;;;;9.15;5.07;;;19.00;99.90;;;;;;5479398;26;20005;-70
2024/04/13 09:04:51;;;;;;;12.07;5.85;;;19.20;99.90;;;;;;5467804;26;20002;-71
2024/04/13 09:07:21;;;;;;;14.27;4.80;;;19.30;99.90;;;;;;5473405;26;20020;-70
2024/04/13 09:09:53;;;;;;;9.52;4.43;;;19.40;99.90;;;;;;5465750;26;20452;-71
2024/04/13 09:12:19;;;;;;;9.15;4.22;;;19.40;99.90;;;;;;5485736;26;20005;-73
2024/04/13 09:14:45;;;;;;;8.80;4.60;;;19.60;99.90;;;;;;5462855;26;20049;-71
2024/04/13 09:17:12;;;;;;;11.48;4.65;;;19.70;99.50;;;;;;5468014;26;20003;-73
2024/04/13 09:19:37;;;;;;;6.38;4.55;;;19.90;99.30;;;;;;5458328;26;20544;-74
2024/04/13 09:22:04;;;;;;;12.50;4.45;;;20.00;99.40;;;;;;5479474;26;20006;-73
2024/04/13 09:24:41;;;;;;;10.05;4.22;;;20.00;99.00;;;;;;5475699;26;20435;-73
2024/04/13 09:27:16;;;;;;;11.48;4.25;;;20.10;99.10;;;;;;5485560;26;20403;-75
2024/04/13 09:29:42;;;;;;;13.35;4.13;;;20.30;98.80;;;;;;5483030;26;20462;-75
2024/04/13 09:32:08;;;;;;;6.47;3.33;;;20.40;98.90;;;;;;5481134;26;20013;-75
2024/04/13 09:34:35;;;;;;;7.57;3.30;;;20.70;98.10;;;;;;5465759;26;20194;-79
2024/04/13 09:37:09;;;;;;;7.70;3.63;;;20.90;97.40;;;;;;5482266;26;20078;-75
2024/04/13 09:39:34;;;;;;;14.23;4.22;;;21.10;98.00;;;;;;5476933;26;20688;-73
2024/04/13 09:42:08;;;;;;;9.88;3.03;;;21.30;97.20;;;;;;5470350;26;20334;-72
2024/04/13 09:44:33;;;;;;;4.50;3.00;;;21.40;96.60;;;;;;5454497;26;22500;-78
2024/04/13 09:46:59;;;;;;;6.53;3.63;;;21.50;96.10;;;;;;5463889;26;20079;-76
2024/04/13 09:49:25;;;;;;;9.02;3.42;;;21.60;96.00;;;;;;5476545;26;20013;-77
2024/04/13 09:51:51;;;;;;;6.40;2.72;;;21.70;95.20;;;;;;5484938;26;19994;-74
2024/04/13 09:54:16;;;;;;;5.72;2.47;;;21.80;94.90;;;;;;5482674;26;20013;-74
2024/04/13 09:56:48;;;;;;;12.23;2.30;;;21.80;94.70;;;;;;5468410;26;20003;-73
2024/04/13 09:59:20;;;;;;;8.27;2.38;;;21.90;94.40;;;;;;5442404;26;19994;-82
2024/04/13 10:01:50;;;;;;;6.10;1.85;;;22.00;94.10;;;;;;5481348;26;19998;-76
2024/04/13 10:04:15;;;;;;;6.28;2.10;;;22.00;94.00;;;;;;5469003;26;19999;-78
2024/04/13 10:06:43;;;;;;;4.72;2.15;;;22.10;94.40;;;;;;5464427;26;20002;-81
2024/04/13 10:09:15;;;;;;;4.88;2.00;;;22.20;93.60;;;;;;5481092;26;20103;-82
2024/04/13 10:11:43;;;;;;;4.72;2.00;;;22.10;93.40;;;;;;5486008;26;19998;-82
2024/04/13 10:14:10;;;;;;;6.13;2.35;;;22.20;93.40;;;;;;5470542;26;20009;-76
2024/04/13 10:16:39;;;;;;;3.80;1.73;;;22.30;93.00;;;;;;5469791;26;20340;-73
2024/04/13 10:19:05;;;;;;;6.00;2.17;;;22.30;93.50;;;;;;5484971;26;20063;-74
2024/04/13 10:21:34;;;;;;;6.13;1.88;;;22.50;92.90;;;;;;5482680;26;20470;-74
2024/04/13 10:24:00;;;;;;;4.43;1.73;;;22.80;93.00;;;;;;5456862;26;20003;-75
2024/04/13 10:26:27;;;;;;;5.80;2.00;;;23.00;92.20;;;;;;5466430;26;20013;-73
2024/04/13 10:28:59;;;;;;;5.72;2.00;;;23.20;91.90;;;;;;5485920;26;19994;-73
2024/04/13 10:31:27;;;;;;;5.85;2.20;;;23.50;91.30;;;;;;5467480;26;19994;-73
2024/04/13 10:33:54;;;;;;;4.53;2.15;;;23.70;90.90;;;;;;5478499;26;20331;-74
2024/04/13 10:36:27;;;;;;;5.70;2.33;;;23.80;90.80;;;;;;5480460;26;19998;-74
2024/04/13 10:38:57;;;;;;;5.85;2.30;;;23.80;90.90;;;;;;5469809;26;20075;-73
2024/04/13 10:41:49;;;;;;;;;;;23.80;90.40;;;;;;5471522;26;20467;-79
2024/04/13 10:44:24;;;;;;;9.07;1.88;;;23.90;90.00;;;;;;5445567;26;19936;-76
2024/04/13 10:46:50;;;;;;;3.45;1.90;;;24.00;89.70;;;;;;5468849;26;20324;-76
2024/04/13 10:49:18;;;;;;;6.85;2.13;;;24.00;89.80;;;;;;5442748;26;20339;-73
2024/04/13 10:51:46;;;;;;;4.38;2.10;;;24.20;89.40;;;;;;5479483;26;20429;-73
2024/04/13 10:54:14;;;;;;;7.70;2.38;;;24.30;87.50;;;;;;5476365;26;20472;-77
2024/04/13 10:56:42;;;;;;;9.13;2.22;;;24.40;87.10;;;;;;5457391;26;20043;-73
2024/04/13 10:59:08;;;;;;;5.20;2.10;;;24.40;87.10;;;;;;5474098;26;20334;-74
2024/04/13 11:01:42;;;;;;;5.00;2.20;;;24.40;87.30;;;;;;5480116;26;20042;-76
2024/04/13 11:04:10;;;;;;;5.15;1.98;;;24.30;87.40;;;;;;5470300;26;20010;-74
2024/04/13 11:06:38;;;;;;;3.47;1.73;;;24.30;87.10;;;;;;5461353;26;20419;-74
2024/04/13 11:09:04;;;;;;;5.05;1.50;;;24.50;86.60;;;;;;5480067;26;20458;-75
2024/04/13 11:11:30;;;;;;;8.15;1.80;;;24.70;86.40;;;;;;5484579;26;20018;-75
2024/04/13 11:13:56;;;;;;;4.20;1.60;;;25.10;85.00;;;;;;5470592;26;20016;-74
2024/04/13 11:16:22;;;;;;;6.57;1.88;;;25.10;84.20;;;;;;5465660;26;20038;-74
2024/04/13 11:18:47;;;;;;;4.65;2.10;;;25.10;84.30;;;;;;5483009;26;19998;-74
2024/04/13 11:21:17;;;;;;;14.75;2.38;;;25.20;84.60;;;;;;5478290;26;20401;-75
2024/04/13 11:23:43;;;;;;;5.00;1.92;;;25.50;84.00;;;;;;5456191;26;20018;-75
2024/04/13 11:26:09;;;;;;;5.95;2.05;;;25.70;84.30;;;;;;5465107;26;19998;-75
2024/04/13 11:28:35;;;;;;;7.18;2.17;;;26.00;82.70;;;;;;5472087;26;20797;-75
2024/04/13 11:31:00;;;;;;;2.47;1.63;;;26.30;81.40;;;;;;5456690;26;20010;-73
2024/04/13 11:33:26;;;;;;;3.63;1.83;;;26.50;81.60;;;;;;5474561;26;20585;-72
2024/04/13 11:36:00;;;;;;;8.23;1.60;;;26.70;81.00;;;;;;5476910;26;19998;-73
2024/04/13 11:38:32;;;;;;;3.33;1.70;;;26.60;81.20;;;;;;5474262;26;19995;-75
2024/04/13 11:40:59;;;;;;;5.07;1.95;;;26.60;81.30;;;;;;5465143;26;19998;-73
2024/04/13 11:43:24;;;;;;;5.32;1.95;;;26.60;80.80;;;;;;5466632;26;19994;-76
2024/04/13 11:45:50;;;;;;;4.20;1.92;;;26.50;80.00;;;;;;5463529;26;20009;-75
2024/04/13 11:48:16;;;;;;;6.03;1.80;;;26.50;80.10;;;;;;5473399;26;19995;-77
2024/04/13 11:50:41;;;;;;;3.85;1.73;;;26.50;79.60;;;;;;5472013;26;20035;-75
2024/04/13 11:53:07;;;;;;;3.40;1.88;;;26.50;80.20;;;;;;5480558;26;20432;-73
2024/04/13 11:55:34;;;;;;;5.60;1.70;;;26.70;79.00;;;;;;5470170;26;20039;-73
2024/04/13 11:57:59;;;;;;;4.80;1.98;;;26.80;80.00;;;;;;5460733;26;20321;-73
2024/04/13 12:00:25;;;;;;;5.55;1.85;;;27.00;78.70;;;;;;5470183;26;19999;-73
2024/04/13 12:02:51;;;;;;;3.20;1.70;;;27.40;77.20;;;;;;5484216;26;20017;-73
2024/04/13 12:05:18;;;;;;;5.80;2.33;;;27.50;76.70;;;;;;5465674;26;20006;-74
2024/04/13 12:07:44;;;;;;;6.80;1.90;;;27.60;76.90;;;;;;5471069;26;20435;-76
2024/04/13 12:10:10;;;;;;;3.90;1.80;;;27.80;78.90;;;;;;5475177;26;20013;-74
2024/04/13 12:12:36;;;;;;;2.55;1.52;;;28.10;75.60;;;;;;5484810;26;20017;-75
2024/04/13 12:15:02;;;;;;;4.18;1.75;;;28.40;74.60;;;;;;5460211;26;19999;-73
2024/04/13 12:17:28;;;;;;;4.22;2.33;;;28.50;74.70;;;;;;5478008;26;20065;-73
2024/04/13 12:19:53;;;;;;;4.75;1.80;;;28.70;74.10;;;;;;5449871;26;20006;-74
2024/04/13 12:22:19;;;;;;;5.90;2.20;;;28.80;74.00;;;;;;5458386;26;20010;-75
2024/04/13 12:24:45;;;;;;;5.22;1.80;;;28.80;73.00;;;;;;5463503;26;20078;-74
2024/04/13 12:27:11;;;;;;;5.55;2.13;;;28.80;72.80;;;;;;5473949;26;20010;-73
2024/04/13 12:29:37;;;;;;;6.90;1.98;;;28.80;73.00;;;;;;5481609;26;19994;-74
2024/04/13 12:32:05;;;;;;;3.35;1.92;;;28.80;72.80;;;;;;5471410;26;20730;-74
2024/04/13 12:34:30;;;;;;;3.58;1.58;;;29.00;72.30;;;;;;5467401;26;19998;-74
2024/04/13 12:36:56;;;;;;;6.82;2.22;;;29.10;72.90;;;;;;5445903;26;20402;-74
2024/04/13 12:39:22;;;;;;;2.63;1.73;;;29.10;72.40;;;;;;5481325;26;20002;-73
2024/04/13 12:41:47;;;;;;;3.80;1.90;;;29.10;72.20;;;;;;5470060;26;20010;-74
2024/04/13 12:44:13;;;;;;;5.15;2.08;;;29.20;72.50;;;;;;5438430;26;20006;-74